Time;durP1;ratioP1;P1;durP2;ratioP2;P2;SDS_P1;SDS_P2;PMS_P1;PMS_P2;Temp;Humidity;BMP_temperature;BMP_pressure;BME280_temperature;BME280_humidity;BME280_pressure;Samples;Min_cycle;Max_cycle;Signal;HPM_P1;HPM_P2
2021/09/28 00:01:45;;;;;;;;;4.00;4.00;;;;;-146.37;100.00;59337.28;4965886;28;45490;-81
2021/09/28 00:04:11;;;;;;;;;5.00;4.00;;;;;-146.37;100.00;59337.28;4966471;28;45809;-80
2021/09/28 00:06:36;;;;;;;;;3.33;3.33;;;;;-146.37;100.00;59337.28;4964762;28;45729;-79
2021/09/28 00:09:03;;;;;;;;;5.00;3.67;;;;;-146.37;100.00;59337.28;4965347;28;44786;-81
2021/09/28 00:11:29;;;;;;;;;4.00;4.00;;;;;-146.37;100.00;59337.28;4949323;28;45409;-81
2021/09/28 00:13:54;;;;;;;;;2.67;2.67;;;;;-146.37;100.00;59337.28;4965823;28;45924;-81
2021/09/28 00:16:22;;;;;;;;;4.00;3.00;;;;;-146.37;100.00;59337.28;4966223;28;45257;-81
2021/09/28 00:18:47;;;;;;;;;2.33;2.33;;;;;-146.37;100.00;59337.28;4948767;28;45424;-82
2021/09/28 00:21:12;;;;;;;;;4.00;4.00;;;;;-146.37;100.00;59337.28;4965776;28;45576;-81
2021/09/28 00:23:38;;;;;;;;;2.33;2.00;;;;;-146.37;100.00;59337.28;4966078;28;45756;-81
2021/09/28 00:26:03;;;;;;;;;2.67;2.67;;;;;-146.37;100.00;59337.28;4966761;28;45369;-82
2021/09/28 00:28:30;;;;;;;;;5.00;4.00;;;;;-146.37;100.00;59337.28;4967442;28;45341;-81
2021/09/28 00:30:56;;;;;;;;;3.00;2.00;;;;;-146.37;100.00;59337.28;4966316;28;45493;-81
2021/09/28 00:33:21;;;;;;;;;3.00;2.67;;;;;-146.37;100.00;59337.28;4965581;28;45831;-81
2021/09/28 00:35:47;;;;;;;;;3.00;3.00;;;;;-146.37;100.00;59337.28;4965456;28;45520;-81
2021/09/28 00:38:12;;;;;;;;;4.00;2.00;;;;;-146.37;100.00;59337.28;4968048;28;45384;-81
2021/09/28 00:40:38;;;;;;;;;4.00;2.67;;;;;-146.37;100.00;59337.28;4969872;28;45423;-81
2021/09/28 00:43:03;;;;;;;;;2.00;1.00;;;;;-146.37;100.00;59337.28;4954699;28;46145;-81
2021/09/28 00:45:29;;;;;;;;;2.67;2.33;;;;;-146.37;100.00;59337.28;4932115;28;45421;-81
2021/09/28 00:47:54;;;;;;;;;2.33;1.00;;;;;-146.37;100.00;59337.28;4947089;28;45417;-80
2021/09/28 00:50:20;;;;;;;;;3.00;3.00;;;;;-146.37;100.00;59337.28;4947368;28;45418;-81
2021/09/28 00:52:46;;;;;;;;;3.67;3.67;;;;;-146.37;100.00;59337.28;4946825;28;45798;-81
2021/09/28 00:55:15;;;;;;;;;2.00;2.00;;;;;-146.37;100.00;59337.28;4930024;28;45500;-81
2021/09/28 00:57:41;;;;;;;;;3.00;3.00;;;;;-146.37;100.00;59337.28;4948569;28;45997;-81
2021/09/28 01:00:10;;;;;;;;;4.00;3.00;;;;;-146.37;100.00;59337.28;4952678;28;46398;-80
2021/09/28 01:02:46;;;;;;;;;3.67;3.00;;;;;-146.37;100.00;59337.28;4929749;28;47330;-79
2021/09/28 01:05:12;;;;;;;;;2.33;2.33;;;;;-146.37;100.00;59337.28;4931068;28;45418;-79
2021/09/28 01:07:37;;;;;;;;;2.00;2.00;;;;;-146.37;100.00;59337.28;4948301;28;45651;-79
2021/09/28 01:10:03;;;;;;;;;3.00;3.00;;;;;-146.37;100.00;59337.28;4947140;28;45366;-79
2021/09/28 01:12:29;;;;;;;;;2.00;2.00;;;;;-146.37;100.00;59337.28;4930038;28;47940;-78
2021/09/28 01:14:54;;;;;;;;;3.67;3.33;;;;;-146.37;100.00;59337.28;4946506;28;45555;-79
2021/09/28 01:17:20;;;;;;;;;3.00;3.00;;;;;-146.37;100.00;59337.28;4931186;28;45505;-79
2021/09/28 01:19:47;;;;;;;;;2.33;2.33;;;;;-146.37;100.00;59337.28;4947937;28;45768;-80
2021/09/28 01:22:15;;;;;;;;;2.33;2.33;;;;;-146.37;100.00;59337.28;4947271;28;45428;-77
2021/09/28 01:24:47;;;;;;;;;4.00;2.67;;;;;-146.37;100.00;59337.28;4928948;28;45346;-79
2021/09/28 01:27:14;;;;;;;;;3.00;3.00;;;;;-146.37;100.00;59337.28;4942204;28;45554;-79
2021/09/28 01:29:41;;;;;;;;;2.67;1.00;;;;;-146.37;100.00;59337.28;4949062;28;45372;-79
2021/09/28 01:32:07;;;;;;;;;3.00;3.00;;;;;-146.37;100.00;59337.28;4948494;28;47274;-79
2021/09/28 01:34:32;;;;;;;;;2.00;2.00;;;;;-146.37;100.00;59337.28;4963797;28;45142;-78
2021/09/28 01:36:58;;;;;;;;;2.33;2.33;;;;;-146.37;100.00;59337.28;4964438;28;45724;-78
2021/09/28 01:39:23;;;;;;;;;2.33;2.33;;;;;-146.37;100.00;59337.28;4965930;28;45250;-78
2021/09/28 01:41:52;;;;;;;;;2.00;1.00;;;;;-146.37;100.00;59337.28;4965857;28;45389;-79
2021/09/28 01:44:20;;;;;;;;;2.00;2.00;;;;;-146.37;100.00;59337.28;4949013;28;45419;-79
2021/09/28 01:46:48;;;;;;;;;2.00;2.00;;;;;-146.37;100.00;59337.28;4949309;28;45369;-79
2021/09/28 01:49:16;;;;;;;;;4.00;3.00;;;;;-146.37;100.00;59337.28;4948796;28;45590;-79
2021/09/28 01:51:42;;;;;;;;;1.00;1.00;;;;;-146.37;100.00;59337.28;4948845;28;48042;-79
2021/09/28 01:54:10;;;;;;;;;2.00;2.00;;;;;-146.37;100.00;59337.28;4964598;28;45420;-79
2021/09/28 01:56:36;;;;;;;;;2.00;2.00;;;;;-146.37;100.00;59337.28;4966046;28;45328;-78
2021/09/28 01:59:03;;;;;;;;;2.00;2.00;;;;;-146.37;100.00;59337.28;4947492;28;45523;-78
2021/09/28 02:01:29;;;;;;;;;3.00;3.00;;;;;-146.37;100.00;59337.28;4965721;28;45886;-79
2021/09/28 02:03:54;;;;;;;;;2.00;2.00;;;;;-146.37;100.00;59337.28;4948728;28;44835;-79
2021/09/28 02:06:22;;;;;;;;;2.00;2.00;;;;;-146.37;100.00;59337.28;4965689;28;45363;-78
2021/09/28 02:08:49;;;;;;;;;2.33;1.67;;;;;-146.37;100.00;59337.28;4948497;28;45543;-78
2021/09/28 02:11:15;;;;;;;;;3.00;3.00;;;;;-146.37;100.00;59337.28;4966604;28;45103;-78
2021/09/28 02:13:41;;;;;;;;;3.00;3.00;;;;;-146.37;100.00;59337.28;4947998;28;45772;-79
2021/09/28 02:16:07;;;;;;;;;2.33;2.33;;;;;-146.37;100.00;59337.28;4965532;28;45488;-79
2021/09/28 02:18:34;;;;;;;;;2.67;2.67;;;;;-146.37;100.00;59337.28;4948077;28;45731;-79
2021/09/28 02:21:00;;;;;;;;;3.67;3.33;;;;;-146.37;100.00;59337.28;4948956;28;47524;-78
2021/09/28 02:23:25;;;;;;;;;1.67;1.33;;;;;-146.37;100.00;59337.28;4965446;28;45367;-78
2021/09/28 02:25:51;;;;;;;;;1.00;1.00;;;;;-146.37;100.00;59337.28;4948192;28;45864;-78
2021/09/28 02:28:17;;;;;;;;;1.67;1.67;;;;;-146.37;100.00;59337.28;4965173;28;45683;-78
2021/09/28 02:30:42;;;;;;;;;2.00;2.00;;;;;-146.37;100.00;59337.28;4930192;28;46809;-78
2021/09/28 02:33:07;;;;;;;;;3.00;2.00;;;;;-146.37;100.00;59337.28;4965679;28;45518;-79
2021/09/28 02:35:33;;;;;;;;;3.00;3.00;;;;;-146.37;100.00;59337.28;4964656;28;45516;-78
2021/09/28 02:37:59;;;;;;;;;2.00;2.00;;;;;-146.37;100.00;59337.28;4964934;28;45457;-78
2021/09/28 02:40:26;;;;;;;;;2.67;2.67;;;;;-146.37;100.00;59337.28;4963680;28;45537;-78
2021/09/28 02:42:52;;;;;;;;;3.00;2.00;;;;;-146.37;100.00;59337.28;4964220;28;45471;-79
2021/09/28 02:45:18;;;;;;;;;1.00;1.00;;;;;-146.37;100.00;59337.28;4947253;28;44791;-78
2021/09/28 02:47:43;;;;;;;;;2.33;2.33;;;;;-146.37;100.00;59337.28;4964584;28;45448;-78
2021/09/28 02:50:09;;;;;;;;;2.00;2.00;;;;;-146.37;100.00;59337.28;4946972;28;47602;-81
2021/09/28 02:52:35;;;;;;;;;2.00;2.00;;;;;-146.37;100.00;59337.28;4946279;28;45506;-79
2021/09/28 02:55:00;;;;;;;;;2.67;2.67;;;;;-146.37;100.00;59337.28;4947571;28;45436;-78
2021/09/28 02:57:25;;;;;;;;;3.67;2.67;;;;;-146.37;100.00;59337.28;4947772;28;45542;-78
2021/09/28 02:59:51;;;;;;;;;1.00;1.00;;;;;-146.37;100.00;59337.28;4946386;28;45525;-79
2021/09/28 03:02:16;;;;;;;;;2.00;2.00;;;;;-146.37;100.00;59337.28;4965382;28;44848;-79
2021/09/28 03:04:43;;;;;;;;;2.67;2.67;;;;;-146.37;100.00;59337.28;4947056;28;45816;-77
2021/09/28 03:07:08;;;;;;;;;2.00;2.00;;;;;-146.37;100.00;59337.28;4947336;28;45368;-78
2021/09/28 03:09:34;;;;;;;;;1.33;1.33;;;;;-146.37;100.00;59337.28;4964614;28;45526;-78
2021/09/28 03:11:59;;;;;;;;;2.00;2.00;;;;;-146.37;100.00;59337.28;4965124;28;45515;-78
2021/09/28 03:14:27;;;;;;;;;2.00;2.00;;;;;-146.37;100.00;59337.28;4965032;28;45438;-79
2021/09/28 03:16:52;;;;;;;;;4.00;2.00;;;;;-146.37;100.00;59337.28;4964585;28;45543;-78
2021/09/28 03:19:20;;;;;;;;;4.00;2.67;;;;;-146.37;100.00;59337.28;4947173;28;47063;-79
2021/09/28 03:21:46;;;;;;;;;2.00;2.00;;;;;-146.37;100.00;59337.28;4947397;28;45770;-78
2021/09/28 03:24:12;;;;;;;;;1.67;1.67;;;;;-146.37;100.00;59337.28;4964008;28;45476;-79
2021/09/28 03:26:39;;;;;;;;;2.00;2.00;;;;;-146.37;100.00;59337.28;4965726;28;45482;-79
2021/09/28 03:29:05;;;;;;;;;3.00;3.00;;;;;-146.37;100.00;59337.28;4964431;28;46416;-78
2021/09/28 03:31:31;;;;;;;;;4.00;4.00;;;;;-146.37;100.00;59337.28;4947007;28;45786;-79
2021/09/28 03:33:58;;;;;;;;;3.00;3.00;;;;;-146.37;100.00;59337.28;4948169;28;45495;-79
2021/09/28 03:36:23;;;;;;;;;5.00;5.00;;;;;-146.37;100.00;59337.28;4967538;28;45321;-79
2021/09/28 03:38:49;;;;;;;;;3.67;3.67;;;;;-146.37;100.00;59337.28;4964909;28;45802;-78
2021/09/28 03:41:14;;;;;;;;;4.33;4.33;;;;;-146.37;100.00;59337.28;4966095;28;44823;-79
2021/09/28 03:43:40;;;;;;;;;3.00;3.00;;;;;-146.37;100.00;59337.28;4966494;28;45565;-78
2021/09/28 03:46:05;;;;;;;;;4.00;2.67;;;;;-146.37;100.00;59337.28;4968286;28;44855;-78
2021/09/28 03:48:31;;;;;;;;;6.00;4.33;;;;;-146.37;100.00;59337.28;4964744;28;45610;-77
2021/09/28 03:50:57;;;;;;;;;2.00;2.00;;;;;-146.37;100.00;59337.28;4962486;28;45459;-78
2021/09/28 03:53:22;;;;;;;;;4.00;2.00;;;;;-146.37;100.00;59337.28;4963180;28;45311;-79
2021/09/28 03:55:47;;;;;;;;;2.00;2.00;;;;;-146.37;100.00;59337.28;4965539;28;45404;-79
2021/09/28 03:58:15;;;;;;;;;2.00;2.00;;;;;-146.37;100.00;59337.28;4964011;28;45654;-80
2021/09/28 04:00:42;;;;;;;;;3.00;2.33;;;;;-146.37;100.00;59337.28;4944777;28;45645;-78
2021/09/28 04:03:08;;;;;;;;;3.00;3.00;;;;;-146.37;100.00;59337.28;4946113;28;45421;-78
2021/09/28 04:05:34;;;;;;;;;4.00;3.00;;;;;-146.37;100.00;59337.28;4965262;28;45362;-78
2021/09/28 04:07:59;;;;;;;;;4.67;3.00;;;;;-146.37;100.00;59337.28;4946683;28;48130;-78
2021/09/28 04:10:25;;;;;;;;;2.67;2.67;;;;;-146.37;100.00;59337.28;4962456;28;45445;-78
2021/09/28 04:12:57;;;;;;;;;4.33;3.00;;;;;-146.37;100.00;59337.28;4964077;28;45407;-78
2021/09/28 04:15:25;;;;;;;;;2.67;2.67;;;;;-146.37;100.00;59337.28;4947241;28;44986;-78
2021/09/28 04:17:52;;;;;;;;;3.67;2.33;;;;;-146.37;100.00;59337.28;4964007;28;47633;-79
2021/09/28 04:20:17;;;;;;;;;3.00;3.00;;;;;-146.37;100.00;59337.28;4947282;28;45463;-78
2021/09/28 04:22:43;;;;;;;;;2.00;2.00;;;;;-146.37;100.00;59337.28;4964055;28;45440;-79
2021/09/28 04:25:09;;;;;;;;;3.00;2.00;;;;;-146.37;100.00;59337.28;4963698;28;45714;-78
2021/09/28 04:27:36;;;;;;;;;3.00;2.67;;;;;-146.37;100.00;59337.28;4962787;28;45451;-78
2021/09/28 04:30:06;;;;;;;;;2.33;2.33;;;;;-146.37;100.00;59337.28;4961904;28;45451;-79
2021/09/28 04:32:31;;;;;;;;;5.67;4.67;;;;;-146.37;100.00;59337.28;4963170;28;45557;-78
2021/09/28 04:34:57;;;;;;;;;3.00;3.00;;;;;-146.37;100.00;59337.28;4963119;28;45408;-78
2021/09/28 04:37:22;;;;;;;;;2.00;2.00;;;;;-146.37;100.00;59337.28;4966709;28;45459;-78
2021/09/28 04:39:48;;;;;;;;;3.00;3.00;;;;;-146.37;100.00;59337.28;4949093;28;45545;-79
2021/09/28 04:45:35;;;;;;;;;1.33;1.33;;;;;-146.37;100.00;59337.28;4964953;28;45488;-78
2021/09/28 04:48:01;;;;;;;;;3.00;1.00;;;;;-146.37;100.00;59337.28;4965531;28;47173;-79
2021/09/28 04:50:26;;;;;;;;;3.00;3.00;;;;;-146.37;100.00;59337.28;4948821;28;46092;-78
2021/09/28 04:52:51;;;;;;;;;3.00;3.00;;;;;-146.37;100.00;59337.28;4964844;28;45812;-78
2021/09/28 04:55:18;;;;;;;;;2.00;2.00;;;;;-146.37;100.00;59337.28;4949075;28;45403;-78
2021/09/28 04:57:43;;;;;;;;;3.33;2.67;;;;;-146.37;100.00;59337.28;4967509;28;47165;-78
2021/09/28 05:00:10;;;;;;;;;2.00;2.00;;;;;-146.37;100.00;59337.28;4966269;28;45409;-78
2021/09/28 05:02:36;;;;;;;;;2.33;2.33;;;;;-146.37;100.00;59337.28;4968976;28;45762;-79
2021/09/28 05:05:03;;;;;;;;;3.00;3.00;;;;;-146.37;100.00;59337.28;4967333;28;45455;-78
2021/09/28 05:07:29;;;;;;;;;4.00;2.33;;;;;-146.37;100.00;59337.28;4936198;28;46544;-78
2021/09/28 05:09:54;;;;;;;;;2.33;2.00;;;;;-146.37;100.00;59337.28;4969064;28;44720;-79
2021/09/28 05:12:20;;;;;;;;;4.33;3.33;;;;;-146.37;100.00;59337.28;4969920;28;45775;-79
2021/09/28 05:14:46;;;;;;;;;1.00;1.00;;;;;-146.37;100.00;59337.28;4967347;28;45297;-79
2021/09/28 05:21:01;;;;;;;;;4.67;3.67;;;;;-146.37;100.00;59337.28;4949853;28;45512;-79
2021/09/28 05:23:30;;;;;;;;;4.00;3.67;;;;;-146.37;100.00;59337.28;4949133;28;45265;-78
2021/09/28 05:25:56;;;;;;;;;5.00;3.00;;;;;-146.37;100.00;59337.28;4948704;28;45745;-78
2021/09/28 05:28:22;;;;;;;;;7.67;4.67;;;;;-146.37;100.00;59337.28;4946757;28;47825;-78
2021/09/28 05:30:49;;;;;;;;;4.00;4.00;;;;;-146.37;100.00;59337.28;4947898;28;45425;-78
2021/09/28 05:33:14;;;;;;;;;4.67;4.67;;;;;-146.37;100.00;59337.28;4930875;28;45490;-78
2021/09/28 05:35:40;;;;;;;;;7.00;6.00;;;;;-146.37;100.00;59337.28;4948090;28;45434;-79
2021/09/28 05:38:06;;;;;;;;;6.00;6.00;;;;;-146.37;100.00;59337.28;4947790;28;47650;-79
2021/09/28 05:40:32;;;;;;;;;3.67;3.67;;;;;-146.37;100.00;59337.28;4946637;28;45502;-78
2021/09/28 05:42:59;;;;;;;;;3.00;2.33;;;;;-146.37;100.00;59337.28;4950881;28;45459;-80
2021/09/28 05:45:24;;;;;;;;;4.67;4.67;;;;;-146.37;100.00;59337.28;4947618;28;45370;-80
2021/09/28 05:47:50;;;;;;;;;4.67;3.00;;;;;-146.37;100.00;59337.28;4931339;28;45452;-79
2021/09/28 05:50:17;;;;;;;;;4.33;2.67;;;;;-146.37;100.00;59337.28;4947674;28;45503;-79
2021/09/28 05:52:44;;;;;;;;;3.67;3.67;;;;;-146.37;100.00;59337.28;4946273;28;45348;-80
2021/09/28 05:55:10;;;;;;;;;5.00;3.00;;;;;-146.37;100.00;59337.28;4946288;28;45568;-79
2021/09/28 05:57:35;;;;;;;;;5.67;4.33;;;;;-146.37;100.00;59337.28;4949731;28;45303;-79
2021/09/28 06:00:04;;;;;;;;;4.67;4.00;;;;;-146.37;100.00;59337.28;4947890;28;45415;-78
2021/09/28 06:02:29;;;;;;;;;3.67;3.00;;;;;-146.37;100.00;59337.28;4948307;28;45459;-78
2021/09/28 06:04:55;;;;;;;;;5.00;5.00;;;;;-146.37;100.00;59337.28;4929341;28;45751;-78
2021/09/28 06:07:21;;;;;;;;;8.67;7.67;;;;;-146.37;100.00;59337.28;4948368;28;45196;-79
2021/09/28 06:09:48;;;;;;;;;6.00;6.00;;;;;-146.37;100.00;59337.28;4930546;28;44918;-79
2021/09/28 06:12:14;;;;;;;;;11.33;7.00;;;;;-146.37;100.00;59337.28;4930646;28;45461;-79
2021/09/28 06:14:41;;;;;;;;;10.00;10.00;;;;;-146.37;100.00;59337.28;4947284;28;45369;-79
2021/09/28 06:17:07;;;;;;;;;8.67;8.33;;;;;-146.37;100.00;59337.28;4948673;28;47553;-80
2021/09/28 06:19:40;;;;;;;;;9.67;9.67;;;;;-146.37;100.00;59337.28;4956775;28;45475;-78
2021/09/28 06:22:06;;;;;;;;;10.00;8.33;;;;;-146.37;100.00;59337.28;4950633;28;45417;-79
2021/09/28 06:24:36;;;;;;;;;5.33;5.33;;;;;-146.37;100.00;59337.28;4951234;28;44912;-80
2021/09/28 06:27:03;;;;;;;;;6.67;6.33;;;;;-146.37;100.00;59337.28;4950954;28;46812;-79
2021/09/28 06:29:30;;;;;;;;;6.00;6.00;;;;;-146.37;100.00;59337.28;4950953;28;44886;-80
2021/09/28 06:31:56;;;;;;;;;5.33;5.33;;;;;-146.37;100.00;59337.28;4967358;28;44795;-78
2021/09/28 06:34:22;;;;;;;;;10.00;6.67;;;;;-146.37;100.00;59337.28;4971177;28;45344;-78
2021/09/28 06:36:47;;;;;;;;;7.00;7.00;;;;;-146.37;100.00;59337.28;4969349;28;45695;-79
2021/09/28 06:39:13;;;;;;;;;10.33;10.33;;;;;-146.37;100.00;59337.28;4949580;28;45468;-78
2021/09/28 06:41:38;;;;;;;;;17.00;17.00;;;;;-146.37;100.00;59337.28;4949912;28;45410;-78
2021/09/28 06:44:05;;;;;;;;;11.67;10.67;;;;;-146.37;100.00;59337.28;4967858;28;45444;-79
2021/09/28 06:46:33;;;;;;;;;5.33;5.00;;;;;-146.37;100.00;59337.28;4966911;28;46159;-78
2021/09/28 06:49:00;;;;;;;;;4.00;4.00;;;;;-146.37;100.00;59337.28;4967831;28;45746;-79
2021/09/28 06:51:25;;;;;;;;;5.00;4.33;;;;;-146.37;100.00;59337.28;4965730;28;45688;-78
2021/09/28 06:53:51;;;;;;;;;5.00;5.00;;;;;-146.37;100.00;59337.28;4950982;28;44974;-78
2021/09/28 06:56:18;;;;;;;;;4.33;3.00;;;;;-146.37;100.00;59337.28;4969214;28;46377;-78
2021/09/28 06:58:52;;;;;;;;;3.67;3.67;;;;;-146.37;100.00;59337.28;4967880;28;44732;-79
2021/09/28 07:01:19;;;;;;;;;6.00;4.33;;;;;-146.37;100.00;59337.28;4969431;28;45491;-77
2021/09/28 07:03:44;;;;;;;;;6.00;4.00;;;;;-146.37;100.00;59337.28;4952829;28;45459;-78
2021/09/28 07:06:10;;;;;;;;;6.00;4.00;;;;;-146.37;100.00;59337.28;4933420;28;47050;-79
2021/09/28 07:08:35;;;;;;;;;4.00;4.00;;;;;-146.37;100.00;59337.28;4936911;28;45588;-78
2021/09/28 07:11:01;;;;;;;;;4.00;3.00;;;;;-146.37;100.00;59337.28;4957098;28;45762;-78
2021/09/28 07:14:16;;;;;;;;;6.00;6.00;;;;;-146.37;100.00;59337.28;4958514;28;44839;-78
2021/09/28 07:16:42;;;;;;;;;3.67;3.67;;;;;-146.37;100.00;59337.28;4956893;28;45738;-78
2021/09/28 07:19:14;;;;;;;;;4.00;4.00;;;;;-146.37;100.00;59337.28;4952802;28;44821;-78
2021/09/28 07:21:52;;;;;;;;;4.00;4.00;;;;;-146.37;100.00;59337.28;4975912;28;45497;-78
2021/09/28 07:24:17;;;;;;;;;4.33;3.67;;;;;-146.37;100.00;59337.28;4957392;28;45531;-78
2021/09/28 07:26:44;;;;;;;;;2.67;2.67;;;;;-146.37;100.00;59337.28;4957873;28;46102;-78
2021/09/28 07:29:13;;;;;;;;;4.00;4.00;;;;;-146.37;100.00;59337.28;4976002;28;44950;-78
2021/09/28 07:31:39;;;;;;;;;3.00;3.00;;;;;-146.37;100.00;59337.28;4972594;28;45427;-79
2021/09/28 07:34:05;;;;;;;;;3.33;3.33;;;;;-146.37;100.00;59337.28;4971083;28;45010;-79
2021/09/28 07:39:40;;;;;;;;;3.00;3.00;;;;;-146.37;100.00;59337.28;4968019;28;45684;-79
2021/09/28 07:42:09;;;;;;;;;4.00;4.00;;;;;-146.37;100.00;59337.28;4950744;28;45429;-79
2021/09/28 07:44:35;;;;;;;;;4.00;4.00;;;;;-146.37;100.00;59337.28;4965895;28;45500;-79
2021/09/28 07:47:00;;;;;;;;;4.33;4.00;;;;;-146.37;100.00;59337.28;4946827;28;48403;-78
2021/09/28 07:49:26;;;;;;;;;3.33;3.33;;;;;-146.37;100.00;59337.28;4949902;28;46334;-78
2021/09/28 07:51:52;;;;;;;;;4.67;4.67;;;;;-146.37;100.00;59337.28;4978242;28;44912;-78
2021/09/28 07:57:40;;;;;;;;;3.00;3.00;;;;;-146.37;100.00;59337.28;4950354;28;46829;-79
2021/09/28 08:00:07;;;;;;;;;4.00;4.00;;;;;-146.37;100.00;59337.28;4966059;28;44839;-79
2021/09/28 08:02:34;;;;;;;;;5.00;3.67;;;;;-146.37;100.00;59337.28;4964779;28;45444;-78
2021/09/28 08:05:02;;;;;;;;;4.00;4.00;;;;;-146.37;100.00;59337.28;4958380;28;44985;-80
2021/09/28 08:07:30;;;;;;;;;3.67;3.33;;;;;-146.37;100.00;59337.28;4958083;28;46678;-79
2021/09/28 08:09:56;;;;;;;;;4.00;4.00;;;;;-146.37;100.00;59337.28;4949500;28;46035;-79
2021/09/28 08:12:24;;;;;;;;;3.67;3.67;;;;;-146.37;100.00;59337.28;4973230;28;45336;-79
2021/09/28 08:14:49;;;;;;;;;3.67;3.67;;;;;-146.37;100.00;59337.28;4956980;28;45600;-80
2021/09/28 08:17:41;;;;;;;;;4.00;4.00;;;;;-146.37;100.00;59337.28;4975909;28;47958;-78
2021/09/28 08:20:09;;;;;;;;;3.00;3.00;;;;;-146.37;100.00;59337.28;4973925;28;45408;-79
2021/09/28 08:22:41;;;;;;;;;6.00;5.00;;;;;-146.37;100.00;59337.28;4972091;28;45405;-79
2021/09/28 08:25:10;;;;;;;;;3.00;3.00;;;;;-146.37;100.00;59337.28;4973244;28;45562;-79
2021/09/28 08:30:21;;;;;;;;;3.67;3.67;;;;;-146.37;100.00;59337.28;4972466;28;44791;-78
2021/09/28 08:32:46;;;;;;;;;4.00;4.00;;;;;-146.37;100.00;59337.28;4971289;28;45305;-80
2021/09/28 08:35:15;;;;;;;;;2.00;2.00;;;;;-146.37;100.00;59337.28;4956308;28;44975;-78
2021/09/28 08:37:44;;;;;;;;;4.33;4.33;;;;;-146.37;100.00;59337.28;4955354;28;46936;-79
2021/09/28 08:40:15;;;;;;;;;3.00;3.00;;;;;-146.37;100.00;59337.28;4955490;28;45387;-81
2021/09/28 08:42:45;;;;;;;;;6.00;5.00;;;;;-146.37;100.00;59337.28;4971397;28;44964;-83
2021/09/28 08:45:22;;;;;;;;;4.00;2.67;;;;;-146.37;100.00;59337.28;4971568;28;44858;-81
2021/09/28 08:48:08;;;;;;;;;5.33;5.33;;;;;-146.37;100.00;59337.28;4950860;28;45468;-80
2021/09/28 08:50:50;;;;;;;;;5.00;4.00;;;;;-146.37;100.00;59337.28;4952396;28;44966;-81
2021/09/28 08:57:16;;;;;;;;;5.33;3.67;;;;;-146.37;100.00;59337.28;4967324;28;45022;-82
2021/09/28 10:00:40;;;;;;;;;;;;;;;;;;;;;
2021/09/28 10:10:08;;;;;;;;;5.00;5.00;;;;;-146.37;100.00;59337.28;4870158;29;45439;-84
2021/09/28 10:45:46;;;;;;;;;;;;;;;;;;;;;
2021/09/28 11:02:16;;;;;;;;;5.67;3.00;;;;;-146.37;100.00;59337.28;4829601;29;44833;-81
2021/09/28 11:05:29;;;;;;;;;5.00;3.00;;;;;-146.37;100.00;59337.28;4819998;29;45505;-83
2021/09/28 11:08:42;;;;;;;;;2.00;2.00;;;;;-146.37;100.00;59337.28;4834912;29;45729;-79
2021/09/28 11:11:30;;;;;;;;;4.67;4.00;;;;;-146.37;100.00;59337.28;4851041;29;45187;-86
2021/09/28 11:14:07;;;;;;;;;3.00;3.00;;;;;-146.37;100.00;59337.28;5254214;23;45476;-81
2021/09/28 11:16:53;;;;;;;;;2.00;2.00;;;;;-146.37;100.00;59337.28;4979019;28;45418;-80
2021/09/28 11:19:20;;;;;;;;;2.50;1.75;;;;;-146.37;100.00;59337.28;4971002;28;47105;-79
2021/09/28 11:21:47;;;;;;;;;2.00;0.00;;;;;-146.37;100.00;59337.28;4989463;28;45916;-80
2021/09/28 11:24:21;;;;;;;;;4.00;2.00;;;;;-146.37;100.00;59337.28;4990226;28;44920;-81
2021/09/28 11:26:50;;;;;;;;;2.00;2.00;;;;;-146.37;100.00;59337.28;4989521;28;45435;-82
2021/09/28 11:29:21;;;;;;;;;4.33;3.00;;;;;-146.37;100.00;59337.28;4967218;28;46092;-80
2021/09/28 11:31:48;;;;;;;;;5.67;5.00;;;;;-146.37;100.00;59337.28;4988560;28;45020;-81
2021/09/28 11:34:33;;;;;;;;;8.00;8.00;;;;;-146.37;100.00;59337.28;4957056;28;44833;-80
2021/09/28 11:37:03;;;;;;;;;2.00;2.00;;;;;-146.37;100.00;59337.28;4980156;28;44864;-80
2021/09/28 11:39:41;;;;;;;;;4.33;4.33;;;;;-146.37;100.00;59337.28;4999565;28;45383;-80
2021/09/28 11:42:11;;;;;;;;;8.33;8.00;;;;;-146.37;100.00;59337.28;4972758;28;44949;-80
2021/09/28 11:44:51;;;;;;;;;3.33;3.33;;;;;-146.37;100.00;59337.28;4971272;28;45464;-80
2021/09/28 11:47:42;;;;;;;;;3.67;2.00;;;;;-146.37;100.00;59337.28;4957346;28;45480;-80
2021/09/28 11:50:08;;;;;;;;;3.00;2.00;;;;;-146.37;100.00;59337.28;4973006;28;46165;-81
2021/09/28 11:56:18;;;;;;;;;7.00;3.00;;;;;-146.37;100.00;59337.28;4992239;28;45334;-83
2021/09/28 11:58:54;;;;;;;;;2.67;2.00;;;;;-146.37;100.00;59337.28;4991379;28;45486;-81
2021/09/28 12:01:22;;;;;;;;;3.00;3.00;;;;;-146.37;100.00;59337.28;4989720;28;47022;-82
2021/09/28 12:09:41;;;;;;;;;1.00;1.00;;;;;-146.37;100.00;59337.28;4988456;28;45396;-83
2021/09/28 12:12:10;;;;;;;;;1.00;1.00;;;;;-146.37;100.00;59337.28;4970367;28;46960;-80
2021/09/28 12:14:47;;;;;;;;;1.00;1.00;;;;;-146.37;100.00;59337.28;4952559;28;45953;-81
2021/09/28 12:17:32;;;;;;;;;2.00;2.00;;;;;-146.37;100.00;59337.28;4964273;28;45671;-81
2021/09/28 12:20:03;;;;;;;;;2.33;2.00;;;;;-146.37;100.00;59337.28;4968086;28;45479;-80
2021/09/28 12:22:42;;;;;;;;;2.67;2.33;;;;;-146.37;100.00;59337.28;4969688;28;45438;-81
2021/09/28 12:25:13;;;;;;;;;2.00;2.00;;;;;-146.37;100.00;59337.28;4968947;28;45443;-80
2021/09/28 12:27:54;;;;;;;;;0.00;0.00;;;;;-146.37;100.00;59337.28;4970553;28;44829;-80
2021/09/28 12:30:27;;;;;;;;;1.00;1.00;;;;;-146.37;100.00;59337.28;4952712;28;45454;-81
2021/09/28 12:33:05;;;;;;;;;1.50;1.00;;;;;-146.37;100.00;59337.28;4984117;28;45636;-81
2021/09/28 12:35:37;;;;;;;;;0.67;0.67;;;;;-146.37;100.00;59337.28;4956639;28;45578;-80
2021/09/28 12:38:13;;;;;;;;;0.00;0.00;;;;;-146.37;100.00;59337.28;4974912;28;44770;-81
2021/09/28 12:40:44;;;;;;;;;1.00;1.00;;;;;-146.37;100.00;59337.28;4969671;28;44892;-80
2021/09/28 12:43:18;;;;;;;;;2.00;1.00;;;;;-146.37;100.00;59337.28;4952939;28;45128;-80
2021/09/28 12:46:04;;;;;;;;;1.33;1.00;;;;;-146.37;100.00;59337.28;4968404;28;45503;-80
2021/09/28 12:48:53;;;;;;;;;;;;;;;;;;;;;
2021/09/28 12:51:25;;;;;;;;;0.00;0.00;;;;;-146.37;100.00;59337.28;4967263;28;65983;-80
2021/09/28 12:53:56;;;;;;;;;0.67;0.67;;;;;-146.37;100.00;59337.28;4983224;28;47139;-80
2021/09/28 12:56:23;;;;;;;;;1.00;1.00;;;;;-146.37;100.00;59337.28;4968958;28;45296;-80
2021/09/28 12:58:58;;;;;;;;;2.33;2.33;;;;;-146.37;100.00;59337.28;4975546;28;45433;-81
2021/09/28 13:01:38;;;;;;;;;;;;;;;;;;;;;
2021/09/28 13:04:08;;;;;;;;;2.67;2.00;;;;;-146.37;100.00;59337.28;4971746;28;75543;-79
2021/09/28 13:06:42;;;;;;;;;2.00;2.00;;;;;-146.37;100.00;59337.28;4970587;28;45796;-81
2021/09/28 13:09:11;;;;;;;;;1.00;1.00;;;;;-146.37;100.00;59337.28;4966080;28;45526;-81
2021/09/28 13:11:36;;;;;;;;;1.00;1.00;;;;;-146.37;100.00;59337.28;4972121;28;45426;-81
2021/09/28 13:14:02;;;;;;;;;3.67;2.00;;;;;-146.37;100.00;59337.28;4970079;28;46677;-80
2021/09/28 13:16:27;;;;;;;;;0.33;0.33;;;;;-146.37;100.00;59337.28;4989076;28;44811;-81
2021/09/28 13:18:54;;;;;;;;;4.00;1.00;;;;;-146.37;100.00;59337.28;4972450;28;45438;-79
2021/09/28 13:22:03;;;;;;;;;0.00;0.00;;;;;-146.37;100.00;59337.28;4979906;28;45371;-80
2021/09/28 13:24:33;;;;;;;;;1.75;0.50;;;;;-146.37;100.00;59337.28;4968741;28;45368;-81
2021/09/28 13:27:09;;;;;;;;;3.33;3.33;;;;;-146.37;100.00;59337.28;4971206;28;45356;-79
2021/09/28 13:29:57;;;;;;;;;2.00;1.33;;;;;-146.37;100.00;59337.28;4987191;28;45431;-80
2021/09/28 13:32:43;;;;;;;;;1.00;1.00;;;;;-146.37;100.00;59337.28;4967344;28;44918;-82
2021/09/28 13:35:26;;;;;;;;;1.00;1.00;;;;;-146.37;100.00;59337.28;4977433;28;45496;-79
2021/09/28 13:37:55;;;;;;;;;2.00;1.00;;;;;-146.37;100.00;59337.28;4980705;28;45389;-81
2021/09/28 13:40:31;;;;;;;;;2.00;2.00;;;;;-146.37;100.00;59337.28;4979803;28;45820;-82
2021/09/28 13:42:57;;;;;;;;;3.00;3.00;;;;;-146.37;100.00;59337.28;4976704;28;44886;-79
2021/09/28 13:45:22;;;;;;;;;0.00;0.00;;;;;-146.37;100.00;59337.28;4975865;28;47566;-81
2021/09/28 13:47:48;;;;;;;;;2.50;1.00;;;;;-146.37;100.00;59337.28;4971454;28;45311;-81